Carlos Maria Naon, Argentina
Current Conditions -  °F | °C
As of 1:00 PM on Friday 19 Dec 2014 (Local Time) from SAEZ Reporting Station
Clear Clear  
Wind Chill: 91°   Ceiling: Unl
Heat Index: 91°   Visibility: 6mi
Dew Point: 59°   Wind: 15mph
Humidity: 34%   Direction: 320°NW
Pressure: 29.62"   Gusts: NA
Location:  35.25°S, 60.84°W
Report Text: SAEZ 191600Z 32013KT 280V360 CAVOK 33/15 Q1003
Loading
Personal Weather Stations






























Interactive Weather Map New forecast layout! Learn more

10-Day Weather Forecast

Advertisements
Track Severe Weather on mobile